Abbott, New Mexico
Current Conditions -  °F | °C
As of 3:17 PM on Tuesday 25 Nov 2014 (Local Time) from KRTN Reporting Station
Clear Clear  
Wind Chill: 52°   Ceiling: Unl
Heat Index: 52°   Visibility: 10mi
Dew Point: 13°   Wind: 16mph
Humidity: 21%   Direction: 320°NW
Pressure: 29.98"   Gusts: 28mph
Location:  36.3883°N, 104.381°W
Report Text: KRTN 252217Z AUTO 32014G24KT 10SM CLR 11/M11 A2998 RMK AO2 PK WND 34027/2202 WSHFT 2157 T01111106
Loading
Personal Weather Stations






























Interactive Weather Map New forecast layout! Learn more

10-Day Weather Forecast

Advertisements
Track Severe Weather on mobile